sensor_id;sensor_type;location;lat;lon;timestamp;pressure;altitude;pressure_sealevel;temperature;humidity
71857;BME280;63344;46.980;28.882;2023-07-30T00:01:55;100290.41;;;18.40;78.82
71857;BME280;63344;46.980;28.882;2023-07-30T00:05:09;100295.16;;;18.37;78.83
71857;BME280;63344;46.980;28.882;2023-07-30T00:07:40;100293.44;;;18.36;78.74
71857;BME280;63344;46.980;28.882;2023-07-30T00:10:17;100297.34;;;18.31;79.15
71857;BME280;63344;46.980;28.882;2023-07-30T00:12:52;100298.31;;;18.30;79.05
71857;BME280;63344;46.980;28.882;2023-07-30T00:15:24;100293.94;;;18.29;79.19
71857;BME280;63344;46.980;28.882;2023-07-30T00:18:10;100297.56;;;18.28;79.22
71857;BME280;63344;46.980;28.882;2023-07-30T00:20:42;100278.28;;;18.23;79.66
71857;BME280;63344;46.980;28.882;2023-07-30T00:23:14;100273.34;;;18.17;79.03
71857;BME280;63344;46.980;28.882;2023-07-30T00:25:42;100285.44;;;18.23;79.42
71857;BME280;63344;46.980;28.882;2023-07-30T00:28:20;100279.22;;;18.22;79.22
71857;BME280;63344;46.980;28.882;2023-07-30T00:30:53;100280.22;;;18.21;79.13
71857;BME280;63344;46.980;28.882;2023-07-30T00:33:27;100268.59;;;18.21;79.62
71857;BME280;63344;46.980;28.882;2023-07-30T00:35:56;100270.38;;;18.09;79.26
71857;BME280;63344;46.980;28.882;2023-07-30T00:38:25;100277.38;;;18.11;79.67
71857;BME280;63344;46.980;28.882;2023-07-30T00:40:53;100279.06;;;18.13;79.80
71857;BME280;63344;46.980;28.882;2023-07-30T00:43:28;100283.94;;;18.07;79.84
71857;BME280;63344;46.980;28.882;2023-07-30T00:46:02;100287.59;;;18.06;80.21
71857;BME280;63344;46.980;28.882;2023-07-30T00:48:33;100291.88;;;18.09;79.77
71857;BME280;63344;46.980;28.882;2023-07-30T00:51:00;100287.38;;;18.09;79.97
71857;BME280;63344;46.980;28.882;2023-07-30T00:53:36;100283.06;;;18.07;80.55
71857;BME280;63344;46.980;28.882;2023-07-30T00:56:11;100281.38;;;18.06;80.20
71857;BME280;63344;46.980;28.882;2023-07-30T00:58:43;100278.16;;;18.01;80.62
71857;BME280;63344;46.980;28.882;2023-07-30T01:01:21;100277.94;;;18.04;80.79
71857;BME280;63344;46.980;28.882;2023-07-30T01:03:58;100288.44;;;18.07;80.95
71857;BME280;63344;46.980;28.882;2023-07-30T01:06:33;100291.28;;;18.05;80.71
71857;BME280;63344;46.980;28.882;2023-07-30T01:09:04;100286.00;;;18.04;81.30
71857;BME280;63344;46.980;28.882;2023-07-30T01:11:38;100290.53;;;18.03;81.39
71857;BME280;63344;46.980;28.882;2023-07-30T01:14:08;100272.41;;;17.94;81.11
71857;BME280;63344;46.980;28.882;2023-07-30T01:16:45;100282.69;;;18.00;81.64
71857;BME280;63344;46.980;28.882;2023-07-30T01:19:22;100275.19;;;17.92;81.35
71857;BME280;63344;46.980;28.882;2023-07-30T01:22:00;100280.97;;;17.99;81.46
71857;BME280;63344;46.980;28.882;2023-07-30T01:24:34;100289.03;;;17.99;81.67
71857;BME280;63344;46.980;28.882;2023-07-30T01:27:16;100285.09;;;17.92;82.38
71857;BME280;63344;46.980;28.882;2023-07-30T01:33:03;100281.06;;;17.74;82.83
71857;BME280;63344;46.980;28.882;2023-07-30T01:35:34;100288.16;;;17.75;82.87
71857;BME280;63344;46.980;28.882;2023-07-30T01:38:09;100292.03;;;17.70;82.84
71857;BME280;63344;46.980;28.882;2023-07-30T01:40:52;100284.06;;;17.69;83.03
71857;BME280;63344;46.980;28.882;2023-07-30T01:43:27;100292.38;;;17.66;82.95
71857;BME280;63344;46.980;28.882;2023-07-30T01:46:07;100290.66;;;17.65;83.29
71857;BME280;63344;46.980;28.882;2023-07-30T01:48:45;100294.31;;;17.64;83.70
71857;BME280;63344;46.980;28.882;2023-07-30T01:51:16;100286.47;;;17.61;83.24
71857;BME280;63344;46.980;28.882;2023-07-30T01:53:49;100288.41;;;17.59;83.38
71857;BME280;63344;46.980;28.882;2023-07-30T01:56:22;100285.84;;;17.57;83.65
71857;BME280;63344;46.980;28.882;2023-07-30T01:59:03;100286.94;;;17.55;83.96
71857;BME280;63344;46.980;28.882;2023-07-30T02:01:36;100287.03;;;17.53;84.07
71857;BME280;63344;46.980;28.882;2023-07-30T02:04:07;100286.84;;;17.43;84.29
71857;BME280;63344;46.980;28.882;2023-07-30T02:06:42;100294.47;;;17.49;84.32
71857;BME280;63344;46.980;28.882;2023-07-30T02:09:19;100290.53;;;17.42;84.17
71857;BME280;63344;46.980;28.882;2023-07-30T02:11:55;100298.38;;;17.45;84.65
71857;BME280;63344;46.980;28.882;2023-07-30T02:14:42;100297.94;;;17.39;84.68
71857;BME280;63344;46.980;28.882;2023-07-30T02:17:24;100300.50;;;17.40;84.92
71857;BME280;63344;46.980;28.882;2023-07-30T02:20:09;100305.97;;;17.39;85.27
71857;BME280;63344;46.980;28.882;2023-07-30T02:22:47;100307.94;;;17.37;85.19
71857;BME280;63344;46.980;28.882;2023-07-30T02:25:20;100303.00;;;17.30;85.29
71857;BME280;63344;46.980;28.882;2023-07-30T02:27:59;100304.41;;;17.23;85.17
71857;BME280;63344;46.980;28.882;2023-07-30T02:30:28;100306.97;;;17.25;85.24
71857;BME280;63344;46.980;28.882;2023-07-30T02:33:20;100312.13;;;17.28;85.37
71857;BME280;63344;46.980;28.882;2023-07-30T02:36:08;100320.09;;;17.29;85.50
71857;BME280;63344;46.980;28.882;2023-07-30T02:38:45;100312.88;;;17.30;85.61
71857;BME280;63344;46.980;28.882;2023-07-30T02:41:23;100315.78;;;17.27;85.80
71857;BME280;63344;46.980;28.882;2023-07-30T02:43:57;100315.03;;;17.25;85.71
71857;BME280;63344;46.980;28.882;2023-07-30T02:46:31;100317.63;;;17.26;86.08
71857;BME280;63344;46.980;28.882;2023-07-30T02:49:12;100308.28;;;17.19;85.90
71857;BME280;63344;46.980;28.882;2023-07-30T02:51:41;100311.59;;;17.23;85.98
71857;BME280;63344;46.980;28.882;2023-07-30T02:54:28;100304.63;;;17.20;86.13
71857;BME280;63344;46.980;28.882;2023-07-30T02:56:58;100337.06;;;17.30;86.28
71857;BME280;63344;46.980;28.882;2023-07-30T02:59:28;100315.69;;;17.28;86.34
71857;BME280;63344;46.980;28.882;2023-07-30T03:02:10;100320.09;;;17.29;86.96
71857;BME280;63344;46.980;28.882;2023-07-30T03:04:39;100336.72;;;17.35;86.98
71857;BME280;63344;46.980;28.882;2023-07-30T03:07:16;100331.88;;;17.40;87.10
71857;BME280;63344;46.980;28.882;2023-07-30T03:10:21;100328.66;;;17.47;86.96
71857;BME280;63344;46.980;28.882;2023-07-30T03:13:14;100317.03;;;17.47;87.18
71857;BME280;63344;46.980;28.882;2023-07-30T03:16:14;100331.84;;;17.52;87.39
71857;BME280;63344;46.980;28.882;2023-07-30T03:19:04;100335.50;;;17.51;86.95
71857;BME280;63344;46.980;28.882;2023-07-30T03:21:34;100323.03;;;17.50;86.89
71857;BME280;63344;46.980;28.882;2023-07-30T03:24:43;100324.56;;;17.79;87.96
71857;BME280;63344;46.980;28.882;2023-07-30T03:27:27;100325.16;;;18.19;88.67
71857;BME280;63344;46.980;28.882;2023-07-30T03:30:20;100324.06;;;18.57;89.10
71857;BME280;63344;46.980;28.882;2023-07-30T03:32:54;100321.47;;;18.80;89.03
71857;BME280;63344;46.980;28.882;2023-07-30T03:35:52;100323.78;;;19.07;88.12
71857;BME280;63344;46.980;28.882;2023-07-30T03:38:35;100326.97;;;19.35;87.37
71857;BME280;63344;46.980;28.882;2023-07-30T03:41:22;100315.53;;;19.65;85.37
71857;BME280;63344;46.980;28.882;2023-07-30T03:43:51;100325.53;;;19.97;83.87
71857;BME280;63344;46.980;28.882;2023-07-30T03:46:27;100325.22;;;20.22;82.52
71857;BME280;63344;46.980;28.882;2023-07-30T03:49:11;100317.47;;;20.50;81.82
71857;BME280;63344;46.980;28.882;2023-07-30T03:51:45;100321.97;;;20.82;80.20
71857;BME280;63344;46.980;28.882;2023-07-30T03:54:15;100326.59;;;21.22;79.47
71857;BME280;63344;46.980;28.882;2023-07-30T03:57:14;100316.66;;;21.63;77.93
71857;BME280;63344;46.980;28.882;2023-07-30T03:59:48;100312.03;;;22.04;77.37
71857;BME280;63344;46.980;28.882;2023-07-30T04:03:05;100325.00;;;22.49;75.46
71857;BME280;63344;46.980;28.882;2023-07-30T04:06:13;100329.22;;;22.91;73.56
71857;BME280;63344;46.980;28.882;2023-07-30T04:09:04;100318.63;;;23.17;72.26
71857;BME280;63344;46.980;28.882;2023-07-30T04:16:31;100319.44;;;23.82;66.61
71857;BME280;63344;46.980;28.882;2023-07-30T04:19:29;100322.00;;;24.02;65.61
71857;BME280;63344;46.980;28.882;2023-07-30T04:22:37;100308.97;;;24.23;64.33
71857;BME280;63344;46.980;28.882;2023-07-30T04:25:48;100309.91;;;24.50;63.36
71857;BME280;63344;46.980;28.882;2023-07-30T04:29:01;100314.91;;;24.81;62.96
71857;BME280;63344;46.980;28.882;2023-07-30T04:32:18;100317.63;;;25.15;62.19
71857;BME280;63344;46.980;28.882;2023-07-30T04:35:52;100307.16;;;25.63;61.24
71857;BME280;63344;46.980;28.882;2023-07-30T04:39:26;100318.16;;;25.96;59.68
71857;BME280;63344;46.980;28.882;2023-07-30T04:42:57;100325.69;;;26.27;59.10
71857;BME280;63344;46.980;28.882;2023-07-30T04:46:48;100326.91;;;26.65;58.27
71857;BME280;63344;46.980;28.882;2023-07-30T04:49:58;100311.16;;;27.00;57.70
71857;BME280;63344;46.980;28.882;2023-07-30T04:53:32;100313.84;;;27.33;55.19
71857;BME280;63344;46.980;28.882;2023-07-30T04:56:53;100314.06;;;27.63;54.28
71857;BME280;63344;46.980;28.882;2023-07-30T04:59:41;100316.50;;;27.80;53.91
71857;BME280;63344;46.980;28.882;2023-07-30T05:03:01;100323.00;;;28.11;52.63
71857;BME280;63344;46.980;28.882;2023-07-30T05:06:26;100314.09;;;28.40;52.41
71857;BME280;63344;46.980;28.882;2023-07-30T05:09:53;100316.22;;;28.68;50.92
71857;BME280;63344;46.980;28.882;2023-07-30T05:13:04;100323.56;;;28.90;50.77
71857;BME280;63344;46.980;28.882;2023-07-30T05:16:35;100323.38;;;28.92;49.67
71857;BME280;63344;46.980;28.882;2023-07-30T05:19:48;100330.16;;;29.11;50.25
71857;BME280;63344;46.980;28.882;2023-07-30T05:23:25;100328.94;;;29.43;50.31
71857;BME280;63344;46.980;28.882;2023-07-30T05:26:23;100318.34;;;29.70;49.68
71857;BME280;63344;46.980;28.882;2023-07-30T05:29:43;100325.25;;;29.81;47.61
71857;BME280;63344;46.980;28.882;2023-07-30T05:36:49;100329.38;;;30.13;48.01
71857;BME280;63344;46.980;28.882;2023-07-30T05:40:02;100315.13;;;30.39;47.43
71857;BME280;63344;46.980;28.882;2023-07-30T05:42:57;100309.41;;;30.34;47.09
71857;BME280;63344;46.980;28.882;2023-07-30T05:46:06;100313.53;;;30.51;46.72
71857;BME280;63344;46.980;28.882;2023-07-30T05:49:00;100315.41;;;30.44;46.69
71857;BME280;63344;46.980;28.882;2023-07-30T05:52:11;100320.38;;;30.19;46.19
71857;BME280;63344;46.980;28.882;2023-07-30T05:55:39;100315.72;;;29.76;46.35
71857;BME280;63344;46.980;28.882;2023-07-30T06:00:25;100323.06;;;28.87;48.26
71857;BME280;63344;46.980;28.882;2023-07-30T06:03:52;100315.22;;;28.46;49.15
71857;BME280;63344;46.980;28.882;2023-07-30T06:07:16;100320.81;;;28.06;50.55
71857;BME280;63344;46.980;28.882;2023-07-30T06:10:38;100314.13;;;27.77;50.96
71857;BME280;63344;46.980;28.882;2023-07-30T06:30:02;100296.75;;;26.75;52.38
71857;BME280;63344;46.980;28.882;2023-07-30T06:32:58;100282.09;;;26.51;53.08
71857;BME280;63344;46.980;28.882;2023-07-30T06:36:23;100283.31;;;26.40;54.15
71857;BME280;63344;46.980;28.882;2023-07-30T06:39:49;100278.03;;;26.39;53.97
71857;BME280;63344;46.980;28.882;2023-07-30T06:42:59;100272.22;;;26.42;54.10
71857;BME280;63344;46.980;28.882;2023-07-30T06:46:13;100265.78;;;26.43;54.51
71857;BME280;63344;46.980;28.882;2023-07-30T06:49:36;100277.88;;;26.49;54.34
71857;BME280;63344;46.980;28.882;2023-07-30T06:52:54;100269.53;;;26.50;54.49
71857;BME280;63344;46.980;28.882;2023-07-30T07:00:09;100254.88;;;26.51;54.43
71857;BME280;63344;46.980;28.882;2023-07-30T07:03:36;100261.69;;;26.55;54.35
71857;BME280;63344;46.980;28.882;2023-07-30T07:11:34;100257.94;;;26.73;53.33
71857;BME280;63344;46.980;28.882;2023-07-30T07:15:32;100251.25;;;26.83;53.25
71857;BME280;63344;46.980;28.882;2023-07-30T07:20:07;100242.06;;;26.85;53.78
71857;BME280;63344;46.980;28.882;2023-07-30T07:23:31;100246.81;;;26.91;52.64
71857;BME280;63344;46.980;28.882;2023-07-30T07:34:49;100239.75;;;27.13;53.12
71857;BME280;63344;46.980;28.882;2023-07-30T07:38:38;100242.13;;;27.24;53.12
71857;BME280;63344;46.980;28.882;2023-07-30T07:42:21;100246.44;;;27.41;52.75
71857;BME280;63344;46.980;28.882;2023-07-30T07:45:49;100238.31;;;27.33;51.11
71857;BME280;63344;46.980;28.882;2023-07-30T07:56:52;100251.06;;;27.72;49.84
71857;BME280;63344;46.980;28.882;2023-07-30T08:16:23;100243.19;;;28.91;46.69
71857;BME280;63344;46.980;28.882;2023-07-30T08:19:22;100238.69;;;28.98;45.64
71857;BME280;63344;46.980;28.882;2023-07-30T08:22:30;100249.28;;;29.16;44.75
71857;BME280;63344;46.980;28.882;2023-07-30T08:25:51;100246.78;;;29.36;44.23
71857;BME280;63344;46.980;28.882;2023-07-30T08:29:31;100240.41;;;29.87;43.32
71857;BME280;63344;46.980;28.882;2023-07-30T08:32:45;100229.84;;;31.19;42.43
71857;BME280;63344;46.980;28.882;2023-07-30T08:35:58;100235.84;;;32.64;40.17
71857;BME280;63344;46.980;28.882;2023-07-30T08:43:10;100228.72;;;35.17;33.64
71857;BME280;63344;46.980;28.882;2023-07-30T08:46:41;100231.59;;;36.01;32.24
71857;BME280;63344;46.980;28.882;2023-07-30T08:50:14;100219.13;;;36.93;31.76
71857;BME280;63344;46.980;28.882;2023-07-30T08:53:32;100220.91;;;37.80;29.86
71857;BME280;63344;46.980;28.882;2023-07-30T08:56:24;100214.91;;;38.34;28.40
71857;BME280;63344;46.980;28.882;2023-07-30T09:03:54;100204.38;;;39.58;26.03
71857;BME280;63344;46.980;28.882;2023-07-30T09:07:11;100187.22;;;39.17;26.32
71857;BME280;63344;46.980;28.882;2023-07-30T09:14:46;100180.22;;;39.91;24.94
71857;BME280;63344;46.980;28.882;2023-07-30T09:17:42;100182.41;;;40.64;24.92
71857;BME280;63344;46.980;28.882;2023-07-30T09:33:02;100174.09;;;39.89;23.89
71857;BME280;63344;46.980;28.882;2023-07-30T09:36:23;100156.84;;;40.30;23.70
71857;BME280;63344;46.980;28.882;2023-07-30T09:39:48;100165.69;;;40.59;23.20
71857;BME280;63344;46.980;28.882;2023-07-30T09:43:10;100155.56;;;40.05;24.11
71857;BME280;63344;46.980;28.882;2023-07-30T09:47:21;100145.03;;;40.12;23.32
71857;BME280;63344;46.980;28.882;2023-07-30T09:51:58;100143.41;;;40.64;23.80
71857;BME280;63344;46.980;28.882;2023-07-30T09:55:39;100138.47;;;41.91;23.43
71857;BME280;63344;46.980;28.882;2023-07-30T09:59:39;100120.00;;;42.46;21.02
71857;BME280;63344;46.980;28.882;2023-07-30T10:06:55;100119.63;;;39.39;23.53
71857;BME280;63344;46.980;28.882;2023-07-30T10:10:18;100118.19;;;37.41;24.76
71857;BME280;63344;46.980;28.882;2023-07-30T10:14:27;100112.13;;;36.87;27.06
71857;BME280;63344;46.980;28.882;2023-07-30T10:30:40;100086.09;;;34.56;30.79
71857;BME280;63344;46.980;28.882;2023-07-30T10:34:26;100094.22;;;34.32;30.60
71857;BME280;63344;46.980;28.882;2023-07-30T10:38:30;100089.22;;;34.41;31.76
71857;BME280;63344;46.980;28.882;2023-07-30T10:42:03;100088.59;;;34.39;31.88
71857;BME280;63344;46.980;28.882;2023-07-30T10:45:51;100084.78;;;34.21;31.59
71857;BME280;63344;46.980;28.882;2023-07-30T10:54:09;100080.00;;;33.60;31.40
71857;BME280;63344;46.980;28.882;2023-07-30T10:58:11;100081.81;;;33.72;30.75
71857;BME280;63344;46.980;28.882;2023-07-30T11:01:54;100062.25;;;33.81;31.39
71857;BME280;63344;46.980;28.882;2023-07-30T11:05:18;100068.00;;;33.79;31.84
71857;BME280;63344;46.980;28.882;2023-07-30T11:08:45;100072.47;;;33.17;31.52
71857;BME280;63344;46.980;28.882;2023-07-30T11:12:25;100070.75;;;32.77;31.71
71857;BME280;63344;46.980;28.882;2023-07-30T11:16:08;100069.22;;;32.88;32.24
71857;BME280;63344;46.980;28.882;2023-07-30T11:23:37;100059.56;;;32.72;32.24
71857;BME280;63344;46.980;28.882;2023-07-30T11:27:06;100067.63;;;32.67;33.36
71857;BME280;63344;46.980;28.882;2023-07-30T11:43:28;100046.59;;;32.79;32.15
71857;BME280;63344;46.980;28.882;2023-07-30T12:04:58;100036.09;;;32.04;34.28
71857;BME280;63344;46.980;28.882;2023-07-30T12:11:20;100026.13;;;31.96;34.83
71857;BME280;63344;46.980;28.882;2023-07-30T12:15:11;100015.56;;;32.13;34.02
71857;BME280;63344;46.980;28.882;2023-07-30T12:23:03;100001.91;;;32.45;33.62
71857;BME280;63344;46.980;28.882;2023-07-30T12:26:15;99988.63;;;32.35;33.16
71857;BME280;63344;46.980;28.882;2023-07-30T12:29:40;99988.66;;;32.29;33.81
71857;BME280;63344;46.980;28.882;2023-07-30T12:33:29;99982.19;;;32.62;33.88
71857;BME280;63344;46.980;28.882;2023-07-30T12:37:13;99988.19;;;32.84;31.99
71857;BME280;63344;46.980;28.882;2023-07-30T12:41:11;99986.75;;;33.06;30.79
71857;BME280;63344;46.980;28.882;2023-07-30T12:45:24;99970.34;;;33.25;31.13
71857;BME280;63344;46.980;28.882;2023-07-30T12:57:46;99974.22;;;33.67;30.59
71857;BME280;63344;46.980;28.882;2023-07-30T13:02:23;99967.19;;;33.71;29.79
71857;BME280;63344;46.980;28.882;2023-07-30T13:06:02;99947.06;;;33.71;29.10
71857;BME280;63344;46.980;28.882;2023-07-30T13:08:58;99955.09;;;33.72;29.76
71857;BME280;63344;46.980;28.882;2023-07-30T13:12:44;99973.47;;;33.79;29.61
71857;BME280;63344;46.980;28.882;2023-07-30T13:16:24;99959.53;;;33.73;28.60
71857;BME280;63344;46.980;28.882;2023-07-30T13:20:31;99949.19;;;33.69;28.41
71857;BME280;63344;46.980;28.882;2023-07-30T13:31:11;99936.72;;;33.66;28.58
71857;BME280;63344;46.980;28.882;2023-07-30T13:34:45;99937.06;;;33.51;29.01
71857;BME280;63344;46.980;28.882;2023-07-30T13:46:50;99926.72;;;33.47;29.49
71857;BME280;63344;46.980;28.882;2023-07-30T13:50:23;99930.47;;;33.52;29.28
71857;BME280;63344;46.980;28.882;2023-07-30T14:01:00;99899.31;;;32.83;29.86
71857;BME280;63344;46.980;28.882;2023-07-30T14:42:33;99883.88;;;32.12;31.18
71857;BME280;63344;46.980;28.882;2023-07-30T15:00:47;99879.94;;;31.88;31.79
71857;BME280;63344;46.980;28.882;2023-07-30T15:07:30;99873.75;;;31.99;31.69
71857;BME280;63344;46.980;28.882;2023-07-30T15:11:37;99869.78;;;32.02;31.65
71857;BME280;63344;46.980;28.882;2023-07-30T15:19:44;99870.59;;;32.02;31.85
71857;BME280;63344;46.980;28.882;2023-07-30T15:22:50;99859.38;;;31.97;31.93
71857;BME280;63344;46.980;28.882;2023-07-30T15:31:19;99860.09;;;31.86;32.74
71857;BME280;63344;46.980;28.882;2023-07-30T15:39:40;99853.25;;;31.50;34.18
71857;BME280;63344;46.980;28.882;2023-07-30T15:43:15;99851.34;;;31.44;33.83
71857;BME280;63344;46.980;28.882;2023-07-30T15:47:11;99861.25;;;31.31;33.24
71857;BME280;63344;46.980;28.882;2023-07-30T15:50:35;99855.78;;;31.25;34.05
71857;BME280;63344;46.980;28.882;2023-07-30T15:54:35;99853.69;;;31.13;34.53
71857;BME280;63344;46.980;28.882;2023-07-30T15:58:03;99848.88;;;31.02;34.23
71857;BME280;63344;46.980;28.882;2023-07-30T16:05:38;99856.25;;;30.95;35.00
71857;BME280;63344;46.980;28.882;2023-07-30T16:12:44;99866.56;;;30.73;36.80
71857;BME280;63344;46.980;28.882;2023-07-30T16:16:25;99857.91;;;30.63;36.98
71857;BME280;63344;46.980;28.882;2023-07-30T16:24:33;99857.44;;;30.32;37.94
71857;BME280;63344;46.980;28.882;2023-07-30T16:28:01;99856.97;;;30.22;39.15
71857;BME280;63344;46.980;28.882;2023-07-30T16:31:36;99857.81;;;30.16;39.77
71857;BME280;63344;46.980;28.882;2023-07-30T16:35:23;99858.19;;;30.06;40.47
71857;BME280;63344;46.980;28.882;2023-07-30T16:38:46;99859.59;;;29.95;41.89
71857;BME280;63344;46.980;28.882;2023-07-30T16:42:06;99860.41;;;29.76;42.31
71857;BME280;63344;46.980;28.882;2023-07-30T16:49:11;99864.03;;;29.55;42.80
71857;BME280;63344;46.980;28.882;2023-07-30T16:52:58;99874.69;;;29.43;43.22
71857;BME280;63344;46.980;28.882;2023-07-30T16:56:24;99873.13;;;29.27;43.92
71857;BME280;63344;46.980;28.882;2023-07-30T16:59:35;99880.63;;;29.12;43.84
71857;BME280;63344;46.980;28.882;2023-07-30T17:03:08;99894.81;;;29.07;42.48
71857;BME280;63344;46.980;28.882;2023-07-30T17:07:29;99879.06;;;29.09;41.81
71857;BME280;63344;46.980;28.882;2023-07-30T17:10:38;99889.81;;;29.11;41.89
71857;BME280;63344;46.980;28.882;2023-07-30T17:14:00;99899.28;;;29.08;41.96
71857;BME280;63344;46.980;28.882;2023-07-30T17:25:27;99936.13;;;28.69;41.80
71857;BME280;63344;46.980;28.882;2023-07-30T17:29:43;99937.63;;;28.50;42.51
71857;BME280;63344;46.980;28.882;2023-07-30T17:33:18;99950.25;;;28.36;42.85
71857;BME280;63344;46.980;28.882;2023-07-30T17:36:48;99944.63;;;28.23;43.55
71857;BME280;63344;46.980;28.882;2023-07-30T17:44:05;99967.50;;;27.77;45.03
71857;BME280;63344;46.980;28.882;2023-07-30T17:47:46;99969.75;;;27.59;45.66
71857;BME280;63344;46.980;28.882;2023-07-30T17:51:12;99969.94;;;27.42;46.50
71857;BME280;63344;46.980;28.882;2023-07-30T17:54:42;99981.50;;;27.21;47.27
71857;BME280;63344;46.980;28.882;2023-07-30T17:58:19;99973.34;;;26.98;48.19
71857;BME280;63344;46.980;28.882;2023-07-30T18:02:12;99982.34;;;26.76;49.37
71857;BME280;63344;46.980;28.882;2023-07-30T18:10:08;100002.03;;;26.23;51.87
71857;BME280;63344;46.980;28.882;2023-07-30T18:18:01;100020.31;;;25.82;53.37
71857;BME280;63344;46.980;28.882;2023-07-30T18:21:40;100007.44;;;25.68;54.27
71857;BME280;63344;46.980;28.882;2023-07-30T18:25:25;100024.97;;;25.49;55.34
71857;BME280;63344;46.980;28.882;2023-07-30T19:08:00;100129.16;;;20.75;84.29
71857;BME280;63344;46.980;28.882;2023-07-30T19:11:07;100126.56;;;20.63;84.84
71857;BME280;63344;46.980;28.882;2023-07-30T19:14:11;100144.25;;;20.56;85.49
71857;BME280;63344;46.980;28.882;2023-07-30T19:25:46;100156.84;;;20.15;88.84
71857;BME280;63344;46.980;28.882;2023-07-30T19:28:57;100150.25;;;20.08;90.26
71857;BME280;63344;46.980;28.882;2023-07-30T19:32:18;100148.81;;;20.04;91.08
71857;BME280;63344;46.980;28.882;2023-07-30T19:44:49;100126.25;;;20.05;93.95
71857;BME280;63344;46.980;28.882;2023-07-30T19:52:14;100130.44;;;20.19;95.25
71857;BME280;63344;46.980;28.882;2023-07-30T19:56:12;100129.06;;;20.24;94.79
71857;BME280;63344;46.980;28.882;2023-07-30T19:59:29;100122.56;;;20.37;95.44
71857;BME280;63344;46.980;28.882;2023-07-30T20:02:53;100118.09;;;20.47;94.14
71857;BME280;63344;46.980;28.882;2023-07-30T20:05:39;100109.47;;;20.53;93.61
71857;BME280;63344;46.980;28.882;2023-07-30T20:08:46;100109.38;;;20.64;94.66
71857;BME280;63344;46.980;28.882;2023-07-30T20:11:42;100111.81;;;20.67;96.20
71857;BME280;63344;46.980;28.882;2023-07-30T20:14:35;100105.28;;;20.70;97.14
71857;BME280;63344;46.980;28.882;2023-07-30T20:17:18;100091.75;;;20.60;97.87
71857;BME280;63344;46.980;28.882;2023-07-30T20:19:59;100099.75;;;20.72;97.88
71857;BME280;63344;46.980;28.882;2023-07-30T20:22:41;100089.09;;;20.70;97.50
71857;BME280;63344;46.980;28.882;2023-07-30T20:25:38;100101.06;;;20.77;97.81
71857;BME280;63344;46.980;28.882;2023-07-30T20:28:58;100095.78;;;20.76;98.83
71857;BME280;63344;46.980;28.882;2023-07-30T20:32:10;100092.78;;;20.79;99.42
71857;BME280;63344;46.980;28.882;2023-07-30T20:35:04;100097.47;;;20.77;100.00
71857;BME280;63344;46.980;28.882;2023-07-30T20:37:51;100097.75;;;20.74;99.35
71857;BME280;63344;46.980;28.882;2023-07-30T20:41:14;100100.03;;;20.78;99.11
71857;BME280;63344;46.980;28.882;2023-07-30T20:44:27;100091.53;;;20.83;99.87
71857;BME280;63344;46.980;28.882;2023-07-30T20:47:22;100105.75;;;20.85;100.00
71857;BME280;63344;46.980;28.882;2023-07-30T20:50:13;100103.19;;;20.83;99.82
71857;BME280;63344;46.980;28.882;2023-07-30T20:53:11;100091.00;;;20.89;100.00
71857;BME280;63344;46.980;28.882;2023-07-30T20:56:24;100097.81;;;20.93;100.00
71857;BME280;63344;46.980;28.882;2023-07-30T21:02:58;100090.44;;;20.95;100.00
71857;BME280;63344;46.980;28.882;2023-07-30T21:10:03;100065.13;;;20.96;100.00
71857;BME280;63344;46.980;28.882;2023-07-30T21:12:59;100078.50;;;21.07;100.00
71857;BME280;63344;46.980;28.882;2023-07-30T21:15:48;100075.09;;;21.05;100.00
71857;BME280;63344;46.980;28.882;2023-07-30T21:18:37;100073.81;;;21.09;100.00
71857;BME280;63344;46.980;28.882;2023-07-30T21:25:28;100074.53;;;21.12;100.00
71857;BME280;63344;46.980;28.882;2023-07-30T21:28:35;100070.28;;;21.09;100.00
71857;BME280;63344;46.980;28.882;2023-07-30T21:31:13;100074.38;;;21.03;100.00
71857;BME280;63344;46.980;28.882;2023-07-30T21:33:51;100076.63;;;20.98;100.00
71857;BME280;63344;46.980;28.882;2023-07-30T21:36:35;100074.50;;;20.92;100.00
71857;BME280;63344;46.980;28.882;2023-07-30T21:39:20;100083.03;;;20.87;100.00
71857;BME280;63344;46.980;28.882;2023-07-30T21:42:03;100076.19;;;20.83;100.00
71857;BME280;63344;46.980;28.882;2023-07-30T21:45:10;100072.66;;;20.83;100.00
71857;BME280;63344;46.980;28.882;2023-07-30T21:48:27;100074.34;;;20.84;100.00
71857;BME280;63344;46.980;28.882;2023-07-30T21:51:03;100066.66;;;20.79;100.00
71857;BME280;63344;46.980;28.882;2023-07-30T21:54:53;100070.09;;;20.81;100.00
71857;BME280;63344;46.980;28.882;2023-07-30T21:57:53;100063.97;;;20.79;100.00
71857;BME280;63344;46.980;28.882;2023-07-30T22:00:25;100060.84;;;20.84;100.00
71857;BME280;63344;46.980;28.882;2023-07-30T22:03:04;100065.09;;;20.86;100.00
71857;BME280;63344;46.980;28.882;2023-07-30T22:06:04;100067.09;;;20.94;100.00
71857;BME280;63344;46.980;28.882;2023-07-30T22:08:48;100060.88;;;20.94;100.00
71857;BME280;63344;46.980;28.882;2023-07-30T22:11:40;100053.91;;;20.91;100.00
71857;BME280;63344;46.980;28.882;2023-07-30T22:14:30;100062.84;;;20.92;100.00
71857;BME280;63344;46.980;28.882;2023-07-30T22:17:04;100066.13;;;20.95;100.00
71857;BME280;63344;46.980;28.882;2023-07-30T22:19:45;100068.84;;;20.95;100.00
71857;BME280;63344;46.980;28.882;2023-07-30T22:22:29;100079.06;;;21.01;100.00
71857;BME280;63344;46.980;28.882;2023-07-30T22:25:02;100089.56;;;21.04;100.00